Time;durP1;ratioP1;P1;durP2;ratioP2;P2;SDS_P1;SDS_P2;PMS_P1;PMS_P2;Temp;Humidity;BMP_temperature;BMP_pressure;BME280_temperature;BME280_humidity;BME280_pressure;Samples;Min_cycle;Max_cycle;Signal;HPM_P1;HPM_P2
2023/05/04 00:00:50;;;;;;;;;;;;;;;;;;5049422;28;4713;-54
2023/05/04 00:03:15;;;;;;;;;;;;;;;;;;5046402;28;1159;-53
2023/05/04 00:05:41;;;;;;;;;;;;;;;;;;5049883;28;4929;-53
2023/05/04 00:08:06;;;;;;;;;;;;;;;;;;5036619;28;4679;-53
2023/05/04 00:10:31;;;;;;;;;;;;;;;;;;5049828;28;6598;-53
2023/05/04 00:12:57;;;;;;;;;;;;;;;;;;5049908;28;4474;-52
2023/05/04 00:15:22;;;;;;;;;;;;;;;;;;5049959;28;1187;-51
2023/05/04 00:17:47;;;;;;;;;;;;;;;;;;5048916;28;4408;-51
2023/05/04 00:20:13;;;;;;;;;;;;;;;;;;5050098;28;4580;-53
2023/05/04 00:22:38;;;;;;;;;;;;;;;;;;5049561;28;4505;-54
2023/05/04 00:25:05;;;;;;;;;;;;;;;;;;5049687;28;4645;-53
2023/05/04 00:27:30;;;;;;;;;;;;;;;;;;5050082;28;1085;-53
2023/05/04 00:29:55;;;;;;;;;;;;;;;;;;5049535;28;4443;-53
2023/05/04 00:32:20;;;;;;;;;;;;;;;;;;5048937;28;5046;-52
2023/05/04 00:34:47;;;;;;;;;;;;;;;;;;5049228;28;4521;-51
2023/05/04 00:37:12;;;;;;;;;;;;;;;;;;5048408;28;4966;-53
2023/05/04 00:39:37;;;;;;;;;;;;;;;;;;5049415;28;1630;-53
2023/05/04 00:42:02;;;;;;;;;;;;;;;;;;5049032;28;4426;-53
2023/05/04 00:44:28;;;;;;;;;;;;;;;;;;5048660;28;4632;-54
2023/05/04 00:46:53;;;;;;;;;;;;;;;;;;5047399;28;4474;-51
2023/05/04 00:49:20;;;;;;;;;;;;;;;;;;5049082;28;4656;-52
2023/05/04 00:51:46;;;;;;;;;;;;;;;;;;5045459;28;1013;-53
2023/05/04 00:54:11;;;;;;;;;;;;;;;;;;5048265;28;5005;-50
2023/05/04 00:56:41;;;;;;;;;;;;;;;;;;5047044;28;4569;-53
2023/05/04 00:59:06;;;;;;;;;;;;;;;;;;5038594;28;4521;-51
2023/05/04 01:01:31;;;;;;;;;;;;;;;;;;5045760;28;5005;-53
2023/05/04 01:03:56;;;;;;;;;;;;;;;;;;5048632;28;4794;-52
2023/05/04 01:06:33;;;;;;;;;;;;;;;;;;5047564;28;1507;-51
2023/05/04 01:09:22;;;;;;;;;;;;;;;;;;5052683;28;6367;-53
2023/05/04 01:11:56;;;;;;;;;;;;;;;;;;5045580;28;4569;-53
2023/05/04 01:14:22;;;;;;;;;;;;;;;;;;5048142;28;4481;-52
2023/05/04 01:16:47;;;;;;;;;;;;;;;;;;5045802;28;4923;-50
2023/05/04 01:19:12;;;;;;;;;;;;;;;;;;5048723;28;4991;-52
2023/05/04 01:21:38;;;;;;;;;;;;;;;;;;5049059;28;1136;-50
2023/05/04 01:24:03;;;;;;;;;;;;;;;;;;5045279;28;4404;-53
2023/05/04 01:26:29;;;;;;;;;;;;;;;;;;5046452;28;4459;-53
2023/05/04 01:29:03;;;;;;;;;;;;;;;;;;5047890;28;4447;-54
2023/05/04 01:31:29;;;;;;;;;;;;;;;;;;5046441;28;4671;-54
2023/05/04 01:33:54;;;;;;;;;;;;;;;;;;5046552;28;5024;-53
2023/05/04 01:36:20;;;;;;;;;;;;;;;;;;5047715;28;1583;-53
2023/05/04 01:38:48;;;;;;;;;;;;;;;;;;5053828;28;4661;-55
2023/05/04 01:41:14;;;;;;;;;;;;;;;;;;5047961;28;4476;-53
2023/05/04 01:43:40;;;;;;;;;;;;;;;;;;5046391;28;4645;-54
2023/05/04 01:46:05;;;;;;;;;;;;;;;;;;5062298;28;4415;-53
2023/05/04 01:48:30;;;;;;;;;;;;;;;;;;5048225;28;1184;-53
2023/05/04 01:50:56;;;;;;;;;;;;;;;;;;5047866;28;4427;-53
2023/05/04 01:53:21;;;;;;;;;;;;;;;;;;5047664;28;4587;-54
2023/05/04 01:55:46;;;;;;;;;;;;;;;;;;5047813;28;4646;-55
2023/05/04 01:58:12;;;;;;;;;;;;;;;;;;5047743;28;4537;-54
2023/05/04 02:00:37;;;;;;;;;;;;;;;;;;5046986;28;1435;-54
2023/05/04 02:03:02;;;;;;;;;;;;;;;;;;5044296;28;4892;-52
2023/05/04 02:05:28;;;;;;;;;;;;;;;;;;5047794;28;5030;-54
2023/05/04 02:07:53;;;;;;;;;;;;;;;;;;5047731;28;4830;-53
2023/05/04 02:10:18;;;;;;;;;;;;;;;;;;5047675;28;6895;-54
2023/05/04 02:12:45;;;;;;;;;;;;;;;;;;5048464;28;1992;-53
2023/05/04 02:15:10;;;;;;;;;;;;;;;;;;5046359;28;4667;-54
2023/05/04 02:17:35;;;;;;;;;;;;;;;;;;5046407;28;4589;-52
2023/05/04 02:20:01;;;;;;;;;;;;;;;;;;5047785;28;4471;-53
2023/05/04 02:22:26;;;;;;;;;;;;;;;;;;5047360;28;4434;-53
2023/05/04 02:24:51;;;;;;;;;;;;;;;;;;5047854;28;4462;-51
2023/05/04 02:27:16;;;;;;;;;;;;;;;;;;5047982;28;1096;-53
2023/05/04 02:29:42;;;;;;;;;;;;;;;;;;5047476;28;4686;-54
2023/05/04 02:32:07;;;;;;;;;;;;;;;;;;5047484;28;4907;-53
2023/05/04 02:34:34;;;;;;;;;;;;;;;;;;5047437;28;5071;-53
2023/05/04 02:36:59;;;;;;;;;;;;;;;;;;5041574;28;4489;-53
2023/05/04 02:39:24;;;;;;;;;;;;;;;;;;5044799;28;1363;-54
2023/05/04 02:41:49;;;;;;;;;;;;;;;;;;5049681;28;4480;-53
2023/05/04 02:44:15;;;;;;;;;;;;;;;;;;5051324;28;4452;-54
2023/05/04 02:46:40;;;;;;;;;;;;;;;;;;5049097;28;5091;-53
2023/05/04 02:49:06;;;;;;;;;;;;;;;;;;5051331;28;4711;-54
2023/05/04 02:51:32;;;;;;;;;;;;;;;;;;5051525;28;1150;-53
2023/05/04 02:53:57;;;;;;;;;;;;;;;;;;5049372;28;4528;-53
2023/05/04 02:56:23;;;;;;;;;;;;;;;;;;5050907;28;4840;-54
2023/05/04 02:58:48;;;;;;;;;;;;;;;;;;5050864;28;4435;-52
2023/05/04 03:01:13;;;;;;;;;;;;;;;;;;5046808;28;4829;-52
2023/05/04 03:03:38;;;;;;;;;;;;;;;;;;5051516;28;1108;-54
2023/05/04 03:06:04;;;;;;;;;;;;;;;;;;5050628;28;4955;-55
2023/05/04 03:08:29;;;;;;;;;;;;;;;;;;5047647;28;6371;-53
2023/05/04 03:10:55;;;;;;;;;;;;;;;;;;5050593;28;5094;-53
2023/05/04 03:13:20;;;;;;;;;;;;;;;;;;5050548;28;4505;-53
2023/05/04 03:15:45;;;;;;;;;;;;;;;;;;5051292;28;1096;-52
2023/05/04 03:18:11;;;;;;;;;;;;;;;;;;5050504;28;4751;-52
2023/05/04 03:20:36;;;;;;;;;;;;;;;;;;5050090;28;4465;-54
2023/05/04 03:23:01;;;;;;;;;;;;;;;;;;5050269;28;5102;-54
2023/05/04 03:25:26;;;;;;;;;;;;;;;;;;5050410;28;4491;-54
2023/05/04 03:27:52;;;;;;;;;;;;;;;;;;5050101;28;4505;-53
2023/05/04 03:30:17;;;;;;;;;;;;;;;;;;5050813;28;1117;-53
2023/05/04 03:32:43;;;;;;;;;;;;;;;;;;5050005;28;4456;-53
2023/05/04 03:35:08;;;;;;;;;;;;;;;;;;5050388;28;5090;-53
2023/05/04 03:37:33;;;;;;;;;;;;;;;;;;5040089;28;4484;-53
2023/05/04 03:39:59;;;;;;;;;;;;;;;;;;5049867;28;4642;-53
2023/05/04 03:42:24;;;;;;;;;;;;;;;;;;5050693;28;1129;-53
2023/05/04 03:44:49;;;;;;;;;;;;;;;;;;5049548;28;4645;-53
2023/05/04 03:47:14;;;;;;;;;;;;;;;;;;5050106;28;4450;-54
2023/05/04 03:49:40;;;;;;;;;;;;;;;;;;5049913;28;4470;-53
2023/05/04 03:52:05;;;;;;;;;;;;;;;;;;5049770;28;4571;-53
2023/05/04 03:54:30;;;;;;;;;;;;;;;;;;5050158;28;1906;-53
2023/05/04 03:56:56;;;;;;;;;;;;;;;;;;5049493;28;4396;-52
2023/05/04 03:59:21;;;;;;;;;;;;;;;;;;5049904;28;4823;-52
2023/05/04 04:01:46;;;;;;;;;;;;;;;;;;5046717;28;4675;-53
2023/05/04 04:04:12;;;;;;;;;;;;;;;;;;5049948;28;4830;-54
2023/05/04 04:06:37;;;;;;;;;;;;;;;;;;5049391;28;1392;-53
2023/05/04 04:09:02;;;;;;;;;;;;;;;;;;5048880;28;6391;-51
2023/05/04 04:11:27;;;;;;;;;;;;;;;;;;5049250;28;5095;-54
2023/05/04 04:13:53;;;;;;;;;;;;;;;;;;5049364;28;5158;-53
2023/05/04 04:16:20;;;;;;;;;;;;;;;;;;5049028;28;4614;-53
2023/05/04 04:18:45;;;;;;;;;;;;;;;;;;5043938;28;1162;-54
2023/05/04 04:21:10;;;;;;;;;;;;;;;;;;5049030;28;4427;-54
2023/05/04 04:23:36;;;;;;;;;;;;;;;;;;5048981;28;4805;-53
2023/05/04 04:26:01;;;;;;;;;;;;;;;;;;5049222;28;4493;-53
2023/05/04 04:28:27;;;;;;;;;;;;;;;;;;5048933;28;4914;-53
2023/05/04 04:30:52;;;;;;;;;;;;;;;;;;5047724;28;4910;-54
2023/05/04 04:33:18;;;;;;;;;;;;;;;;;;5047772;28;1905;-54
2023/05/04 04:35:43;;;;;;;;;;;;;;;;;;5044586;28;4484;-53
2023/05/04 04:38:08;;;;;;;;;;;;;;;;;;5041396;28;4995;-50
2023/05/04 04:40:34;;;;;;;;;;;;;;;;;;5045966;28;4492;-52
2023/05/04 04:42:59;;;;;;;;;;;;;;;;;;5049098;28;4473;-54
2023/05/04 04:45:25;;;;;;;;;;;;;;;;;;5049048;28;1108;-52
2023/05/04 04:47:50;;;;;;;;;;;;;;;;;;5048643;28;4393;-54
2023/05/04 04:50:16;;;;;;;;;;;;;;;;;;5048844;28;4493;-53
2023/05/04 04:52:41;;;;;;;;;;;;;;;;;;5048369;28;4627;-54
2023/05/04 04:55:07;;;;;;;;;;;;;;;;;;5048384;28;4489;-54
2023/05/04 04:57:32;;;;;;;;;;;;;;;;;;5048932;28;1195;-53
2023/05/04 04:59:58;;;;;;;;;;;;;;;;;;5048264;28;4441;-52
2023/05/04 05:02:23;;;;;;;;;;;;;;;;;;5043005;28;4952;-54
2023/05/04 05:04:48;;;;;;;;;;;;;;;;;;5047998;28;4614;-53
2023/05/04 05:07:14;;;;;;;;;;;;;;;;;;5039614;28;4973;-53
2023/05/04 05:09:39;;;;;;;;;;;;;;;;;;5044108;28;6689;-53
2023/05/04 05:12:04;;;;;;;;;;;;;;;;;;5048519;28;4589;-53
2023/05/04 05:14:33;;;;;;;;;;;;;;;;;;5047555;28;4544;-53
2023/05/04 05:16:59;;;;;;;;;;;;;;;;;;5046409;28;4449;-53
2023/05/04 05:19:24;;;;;;;;;;;;;;;;;;5048090;28;5368;-54
2023/05/04 05:21:50;;;;;;;;;;;;;;;;;;5040537;28;5035;-53
2023/05/04 05:24:16;;;;;;;;;;;;;;;;;;5053174;28;1730;-54
2023/05/04 05:26:41;;;;;;;;;;;;;;;;;;5048854;28;5013;-54
2023/05/04 05:29:07;;;;;;;;;;;;;;;;;;5049783;28;4920;-54
2023/05/04 05:31:32;;;;;;;;;;;;;;;;;;5060298;28;4498;-55
2023/05/04 05:33:57;;;;;;;;;;;;;;;;;;5045438;28;4963;-54
2023/05/04 05:36:22;;;;;;;;;;;;;;;;;;5044344;28;1717;-54
2023/05/04 05:38:48;;;;;;;;;;;;;;;;;;5050757;28;4473;-54
2023/05/04 05:41:14;;;;;;;;;;;;;;;;;;5049458;28;4492;-52
2023/05/04 05:43:40;;;;;;;;;;;;;;;;;;5045952;28;4509;-54
2023/05/04 05:46:05;;;;;;;;;;;;;;;;;;5051514;28;5221;-60
2023/05/04 05:48:30;;;;;;;;;;;;;;;;;;5049626;28;1512;-58
2023/05/04 05:50:56;;;;;;;;;;;;;;;;;;5052715;28;5363;-58
2023/05/04 05:53:21;;;;;;;;;;;;;;;;;;5054478;28;4666;-63
2023/05/04 05:55:46;;;;;;;;;;;;;;;;;;5048605;28;5104;-62
2023/05/04 05:58:12;;;;;;;;;;;;;;;;;;5044793;28;4522;-61
2023/05/04 06:00:37;;;;;;;;;;;;;;;;;;5048241;28;1062;-62
2023/05/04 06:03:03;;;;;;;;;;;;;;;;;;5046176;28;4982;-62
2023/05/04 06:05:28;;;;;;;;;;;;;;;;;;5046505;28;4998;-65
2023/05/04 06:07:53;;;;;;;;;;;;;;;;;;5042106;28;4718;-62
2023/05/04 06:10:18;;;;;;;;;;;;;;;;;;5046212;28;6399;-61
2023/05/04 06:12:44;;;;;;;;;;;;;;;;;;5038429;28;1255;-61
2023/05/04 06:15:10;;;;;;;;;;;;;;;;;;5045600;28;4508;-60
2023/05/04 06:17:36;;;;;;;;;;;;;;;;;;5051583;28;4579;-60
2023/05/04 06:20:01;;;;;;;;;;;;;;;;;;5051380;28;5128;-60
2023/05/04 06:22:26;;;;;;;;;;;;;;;;;;5051614;28;5063;-60
2023/05/04 06:24:52;;;;;;;;;;;;;;;;;;5051832;28;4456;-60
2023/05/04 06:27:17;;;;;;;;;;;;;;;;;;5052309;28;1100;-60
2023/05/04 06:29:42;;;;;;;;;;;;;;;;;;5050483;28;4936;-60
2023/05/04 06:32:08;;;;;;;;;;;;;;;;;;5051073;28;4614;-59
2023/05/04 06:34:34;;;;;;;;;;;;;;;;;;5051683;28;4518;-60
2023/05/04 06:36:59;;;;;;;;;;;;;;;;;;5049445;28;4612;-60
2023/05/04 06:39:24;;;;;;;;;;;;;;;;;;5045991;28;1165;-60
2023/05/04 06:41:52;;;;;;;;;;;;;;;;;;5048451;28;4636;-59
2023/05/04 06:44:17;;;;;;;;;;;;;;;;;;5051465;28;4459;-59
2023/05/04 06:46:42;;;;;;;;;;;;;;;;;;5051464;28;4801;-60
2023/05/04 06:49:08;;;;;;;;;;;;;;;;;;5051045;28;4975;-59
2023/05/04 06:51:36;;;;;;;;;;;;;;;;;;5051703;28;1410;-59
2023/05/04 06:54:01;;;;;;;;;;;;;;;;;;5051215;28;4610;-56
2023/05/04 06:56:27;;;;;;;;;;;;;;;;;;5050660;28;4443;-59
2023/05/04 06:58:52;;;;;;;;;;;;;;;;;;5050846;28;4586;-63
2023/05/04 07:01:17;;;;;;;;;;;;;;;;;;5048882;28;4456;-60
2023/05/04 07:03:43;;;;;;;;;;;;;;;;;;5051091;28;1207;-61
2023/05/04 07:06:08;;;;;;;;;;;;;;;;;;5050400;28;4372;-60
2023/05/04 07:08:34;;;;;;;;;;;;;;;;;;5039336;28;6301;-61
2023/05/04 07:10:59;;;;;;;;;;;;;;;;;;5050628;28;4449;-60
2023/05/04 07:13:24;;;;;;;;;;;;;;;;;;5050335;28;4583;-62
2023/05/04 07:15:50;;;;;;;;;;;;;;;;;;5048997;28;4501;-61
2023/05/04 07:18:15;;;;;;;;;;;;;;;;;;5050760;28;1257;-62
2023/05/04 07:20:41;;;;;;;;;;;;;;;;;;5050012;28;4409;-60
2023/05/04 07:23:06;;;;;;;;;;;;;;;;;;5049962;28;4478;-60
2023/05/04 07:25:31;;;;;;;;;;;;;;;;;;5046018;28;4595;-59
2023/05/04 07:27:57;;;;;;;;;;;;;;;;;;5049194;28;4437;-59
2023/05/04 07:30:23;;;;;;;;;;;;;;;;;;5050695;28;1096;-60
2023/05/04 07:32:48;;;;;;;;;;;;;;;;;;5050303;28;4623;-59
2023/05/04 07:35:14;;;;;;;;;;;;;;;;;;5048012;28;4605;-60
2023/05/04 07:37:39;;;;;;;;;;;;;;;;;;5044900;28;4696;-60
2023/05/04 07:40:04;;;;;;;;;;;;;;;;;;5046858;28;4525;-59
2023/05/04 07:42:30;;;;;;;;;;;;;;;;;;5040553;28;1111;-59
2023/05/04 07:44:55;;;;;;;;;;;;;;;;;;5045105;28;4738;-60
2023/05/04 07:47:20;;;;;;;;;;;;;;;;;;5041575;28;4947;-60
2023/05/04 07:49:45;;;;;;;;;;;;;;;;;;5049572;28;4987;-60
2023/05/04 07:52:11;;;;;;;;;;;;;;;;;;5048155;28;4591;-61
2023/05/04 07:54:36;;;;;;;;;;;;;;;;;;5050558;28;1906;-62
2023/05/04 07:57:04;;;;;;;;;;;;;;;;;;5064288;28;4425;-59
2023/05/04 07:59:30;;;;;;;;;;;;;;;;;;5060954;28;4650;-59
2023/05/04 08:01:55;;;;;;;;;;;;;;;;;;5052727;28;5011;-59
2023/05/04 08:04:21;;;;;;;;;;;;;;;;;;5054964;28;4528;-60
2023/05/04 08:06:48;;;;;;;;;;;;;;;;;;5060001;28;1527;-60
2023/05/04 08:09:13;;;;;;;;;;;;;;;;;;5055738;28;6306;-61
2023/05/04 08:11:38;;;;;;;;;;;;;;;;;;5052980;28;4472;-60
2023/05/04 08:14:04;;;;;;;;;;;;;;;;;;5057529;28;4577;-62
2023/05/04 08:16:29;;;;;;;;;;;;;;;;;;5060075;28;4453;-60
2023/05/04 08:18:55;;;;;;;;;;;;;;;;;;5055400;28;4512;-62
2023/05/04 08:21:20;;;;;;;;;;;;;;;;;;5052859;28;1344;-60
2023/05/04 08:23:46;;;;;;;;;;;;;;;;;;5058444;28;5070;-60
2023/05/04 08:26:11;;;;;;;;;;;;;;;;;;5059435;28;4926;-61
2023/05/04 08:28:37;;;;;;;;;;;;;;;;;;5058450;28;5003;-61
2023/05/04 08:31:03;;;;;;;;;;;;;;;;;;5048895;28;4651;-60
2023/05/04 08:33:29;;;;;;;;;;;;;;;;;;5066441;28;2374;-60
2023/05/04 08:35:54;;;;;;;;;;;;;;;;;;5058050;28;4994;-60
2023/05/04 08:38:19;;;;;;;;;;;;;;;;;;5050869;28;4464;-60
2023/05/04 08:40:45;;;;;;;;;;;;;;;;;;5050670;28;4468;-61
2023/05/04 08:43:10;;;;;;;;;;;;;;;;;;5050465;28;4608;-59
2023/05/04 08:45:38;;;;;;;;;;;;;;;;;;5049456;28;1136;-61
2023/05/04 08:48:04;;;;;;;;;;;;;;;;;;5048965;28;4594;-60
2023/05/04 08:50:30;;;;;;;;;;;;;;;;;;5064805;28;4470;-60
2023/05/04 08:52:55;;;;;;;;;;;;;;;;;;5056900;28;4468;-64
2023/05/04 08:55:20;;;;;;;;;;;;;;;;;;5047185;28;4467;-59
2023/05/04 08:57:45;;;;;;;;;;;;;;;;;;5061810;28;1115;-60
2023/05/04 09:00:12;;;;;;;;;;;;;;;;;;5043071;28;4432;-60
2023/05/04 09:02:37;;;;;;;;;;;;;;;;;;5049965;28;4723;-59
2023/05/04 09:05:03;;;;;;;;;;;;;;;;;;5047225;28;4692;-60
2023/05/04 09:07:29;;;;;;;;;;;;;;;;;;5063707;28;4479;-61
2023/05/04 09:09:55;;;;;;;;;;;;;;;;;;5052466;28;6508;-59
2023/05/04 09:12:21;;;;;;;;;;;;;;;;;;5047958;28;1298;-59
2023/05/04 09:14:46;;;;;;;;;;;;;;;;;;5050166;28;4664;-61
2023/05/04 09:17:16;;;;;;;;;;;;;;;;;;5049013;28;4414;-60
2023/05/04 09:19:43;;;;;;;;;;;;;;;;;;5047596;28;4649;-60
2023/05/04 09:22:14;;;;;;;;;;;;;;;;;;5057993;28;5134;-60
2023/05/04 09:24:39;;;;;;;;;;;;;;;;;;5053033;28;2162;-60
2023/05/04 09:27:11;;;;;;;;;;;;;;;;;;5058273;28;4503;-60
2023/05/04 09:29:38;;;;;;;;;;;;;;;;;;5058102;28;4936;-61
2023/05/04 09:32:03;;;;;;;;;;;;;;;;;;5060858;28;4446;-62
2023/05/04 09:34:29;;;;;;;;;;;;;;;;;;5059791;28;4512;-61
2023/05/04 09:36:58;;;;;;;;;;;;;;;;;;5049332;28;5080;-60
2023/05/04 09:39:23;;;;;;;;;;;;;;;;;;5049229;28;1144;-60
2023/05/04 09:41:48;;;;;;;;;;;;;;;;;;5053386;28;4986;-60
2023/05/04 09:44:17;;;;;;;;;;;;;;;;;;5054970;28;4551;-60
2023/05/04 09:46:50;;;;;;;;;;;;;;;;;;5051306;28;5023;-59
2023/05/04 09:49:17;;;;;;;;;;;;;;;;;;5060591;28;4497;-61
2023/05/04 09:51:42;;;;;;;;;;;;;;;;;;5063118;28;1163;-60
2023/05/04 09:54:08;;;;;;;;;;;;;;;;;;5060195;28;4609;-60
2023/05/04 09:56:46;;;;;;;;;;;;;;;;;;5057039;28;4449;-60
2023/05/04 09:59:12;;;;;;;;;;;;;;;;;;5065090;28;4601;-60
2023/05/04 10:01:37;;;;;;;;;;;;;;;;;;5055439;28;5086;-60
2023/05/04 10:04:03;;;;;;;;;;;;;;;;;;5067037;28;4951;-59
2023/05/04 10:06:29;;;;;;;;;;;;;;;;;;5051867;28;1152;-63
2023/05/04 10:08:55;;;;;;;;;;;;;;;;;;5053950;28;6404;-60
2023/05/04 10:11:20;;;;;;;;;;;;;;;;;;5061048;28;4418;-59
2023/05/04 10:13:46;;;;;;;;;;;;;;;;;;5052872;28;4512;-59
2023/05/04 10:16:17;;;;;;;;;;;;;;;;;;5050417;28;4541;-60
2023/05/04 10:18:46;;;;;;;;;;;;;;;;;;5061431;28;1349;-59
2023/05/04 10:21:37;;;;;;;;;;;;;;;;;;5058993;28;4893;-59
2023/05/04 10:24:13;;;;;;;;;;;;;;;;;;5042421;28;4575;-60
2023/05/04 10:26:38;;;;;;;;;;;;;;;;;;5061953;28;4472;-60
2023/05/04 10:29:10;;;;;;;;;;;;;;;;;;5059356;28;4619;-60
2023/05/04 10:31:38;;;;;;;;;;;;;;;;;;5053187;28;4411;-61
2023/05/04 10:34:04;;;;;;;;;;;;;;;;;;5050073;28;4744;-60
2023/05/04 10:36:39;;;;;;;;;;;;;;;;;;5054794;28;1132;-59
2023/05/04 10:39:04;;;;;;;;;;;;;;;;;;5037393;28;4458;-61
2023/05/04 10:41:30;;;;;;;;;;;;;;;;;;5055693;28;4583;-59
2023/05/04 10:44:02;;;;;;;;;;;;;;;;;;5054027;28;4831;-60
2023/05/04 10:46:27;;;;;;;;;;;;;;;;;;5055083;28;4920;-62
2023/05/04 10:48:53;;;;;;;;;;;;;;;;;;5051918;28;4477;-61
2023/05/04 10:51:18;;;;;;;;;;;;;;;;;;5054421;28;1088;-60
2023/05/04 10:53:44;;;;;;;;;;;;;;;;;;5059045;28;4415;-59
2023/05/04 10:56:19;;;;;;;;;;;;;;;;;;5061494;28;4463;-59
2023/05/04 10:58:44;;;;;;;;;;;;;;;;;;5049562;28;4464;-60
2023/05/04 11:01:10;;;;;;;;;;;;;;;;;;5057633;28;4477;-60
2023/05/04 11:03:42;;;;;;;;;;;;;;;;;;5057588;28;1143;-60
2023/05/04 11:06:13;;;;;;;;;;;;;;;;;;5034456;28;4456;-60
2023/05/04 11:08:39;;;;;;;;;;;;;;;;;;5048602;28;6395;-60
2023/05/04 11:11:07;;;;;;;;;;;;;;;;;;5055130;28;5101;-60
2023/05/04 11:13:33;;;;;;;;;;;;;;;;;;5055673;28;4816;-61
2023/05/04 11:15:59;;;;;;;;;;;;;;;;;;5052919;28;4594;-61
2023/05/04 11:18:34;;;;;;;;;;;;;;;;;;5048816;28;1214;-60
2023/05/04 11:20:59;;;;;;;;;;;;;;;;;;5050678;28;4399;-61
2023/05/04 11:23:25;;;;;;;;;;;;;;;;;;5068922;28;4563;-60
2023/05/04 11:25:50;;;;;;;;;;;;;;;;;;5055069;28;4832;-60
2023/05/04 11:28:15;;;;;;;;;;;;;;;;;;5050146;28;5090;-61
2023/05/04 11:30:42;;;;;;;;;;;;;;;;;;5058373;28;1104;-60
2023/05/04 11:33:12;;;;;;;;;;;;;;;;;;5059777;28;4518;-60
2023/05/04 11:35:37;;;;;;;;;;;;;;;;;;5051720;28;5099;-60
2023/05/04 11:38:02;;;;;;;;;;;;;;;;;;5058863;28;4975;-60
2023/05/04 11:40:28;;;;;;;;;;;;;;;;;;5052000;28;5025;-60
2023/05/04 11:42:53;;;;;;;;;;;;;;;;;;5053440;28;4817;-59
2023/05/04 11:45:19;;;;;;;;;;;;;;;;;;5052373;28;1064;-61
2023/05/04 11:47:44;;;;;;;;;;;;;;;;;;5054678;28;4996;-60
2023/05/04 11:50:10;;;;;;;;;;;;;;;;;;5056883;28;4638;-60
2023/05/04 11:52:39;;;;;;;;;;;;;;;;;;5064862;28;4573;-59
2023/05/04 11:55:04;;;;;;;;;;;;;;;;;;5050888;28;4529;-60
2023/05/04 11:57:30;;;;;;;;;;;;;;;;;;5050775;28;1203;-61
2023/05/04 11:59:55;;;;;;;;;;;;;;;;;;5059945;28;4468;-60
2023/05/04 12:02:21;;;;;;;;;;;;;;;;;;5056446;28;4622;-60
2023/05/04 12:04:46;;;;;;;;;;;;;;;;;;5050336;28;4492;-60
2023/05/04 12:07:11;;;;;;;;;;;;;;;;;;5053490;28;5893;-60
2023/05/04 12:09:46;;;;;;;;;;;;;;;;;;5057679;28;6604;-60
2023/05/04 12:12:13;;;;;;;;;;;;;;;;;;5049671;28;4571;-60
2023/05/04 12:14:49;;;;;;;;;;;;;;;;;;5061865;28;4544;-61
2023/05/04 12:17:14;;;;;;;;;;;;;;;;;;5053602;28;4568;-60
2023/05/04 12:19:49;;;;;;;;;;;;;;;;;;5055018;28;4598;-60
2023/05/04 12:22:14;;;;;;;;;;;;;;;;;;5054514;28;5085;-66
2023/05/04 12:24:40;;;;;;;;;;;;;;;;;;5063910;28;1172;-58
2023/05/04 12:27:10;;;;;;;;;;;;;;;;;;5053224;28;4973;-58
2023/05/04 12:29:36;;;;;;;;;;;;;;;;;;5037514;28;4867;-57
2023/05/04 12:32:01;;;;;;;;;;;;;;;;;;5061408;28;4905;-55
2023/05/04 12:34:27;;;;;;;;;;;;;;;;;;5063256;28;5063;-58
2023/05/04 12:36:52;;;;;;;;;;;;;;;;;;5063922;28;5817;-57
2023/05/04 12:39:17;;;;;;;;;;;;;;;;;;5065274;28;1423;-57
2023/05/04 12:41:43;;;;;;;;;;;;;;;;;;5064358;28;5336;-57
2023/05/04 12:44:10;;;;;;;;;;;;;;;;;;5061899;28;4454;-59
2023/05/04 12:46:35;;;;;;;;;;;;;;;;;;5065370;28;4457;-56
2023/05/04 12:49:01;;;;;;;;;;;;;;;;;;5065487;28;4443;-56
2023/05/04 12:51:26;;;;;;;;;;;;;;;;;;5064198;28;1170;-54
2023/05/04 12:53:51;;;;;;;;;;;;;;;;;;5062056;28;4874;-55
2023/05/04 12:56:17;;;;;;;;;;;;;;;;;;5065566;28;4461;-57
2023/05/04 12:58:42;;;;;;;;;;;;;;;;;;5062200;28;4664;-57
2023/05/04 13:01:07;;;;;;;;;;;;;;;;;;5059775;28;4550;-50
2023/05/04 13:03:32;;;;;;;;;;;;;;;;;;5061430;28;1032;-58
2023/05/04 13:05:58;;;;;;;;;;;;;;;;;;5062914;28;4485;-56
2023/05/04 13:08:23;;;;;;;;;;;;;;;;;;5059983;28;6312;-56
2023/05/04 13:10:49;;;;;;;;;;;;;;;;;;5060479;28;4853;-58
2023/05/04 13:13:16;;;;;;;;;;;;;;;;;;5059240;28;4496;-58
2023/05/04 13:15:42;;;;;;;;;;;;;;;;;;5090614;28;1564;-58
2023/05/04 13:18:08;;;;;;;;;;;;;;;;;;5065155;28;4374;-58
2023/05/04 13:20:33;;;;;;;;;;;;;;;;;;5059308;28;5007;-58
2023/05/04 13:22:58;;;;;;;;;;;;;;;;;;5060834;28;4946;-55
2023/05/04 13:25:23;;;;;;;;;;;;;;;;;;5045899;28;5793;-59
2023/05/04 13:27:49;;;;;;;;;;;;;;;;;;5048053;28;4646;-59
2023/05/04 13:30:16;;;;;;;;;;;;;;;;;;5054667;28;1774;-58
2023/05/04 13:32:41;;;;;;;;;;;;;;;;;;5037103;28;4686;-58
2023/05/04 13:35:08;;;;;;;;;;;;;;;;;;5054790;28;4752;-56
2023/05/04 13:37:33;;;;;;;;;;;;;;;;;;5042159;28;5065;-55
2023/05/04 13:40:00;;;;;;;;;;;;;;;;;;5049345;28;5239;-56
2023/05/04 13:42:25;;;;;;;;;;;;;;;;;;5050365;28;1667;-59
2023/05/04 13:44:50;;;;;;;;;;;;;;;;;;5050000;28;4890;-57
2023/05/04 13:47:16;;;;;;;;;;;;;;;;;;5054303;28;5137;-58
2023/05/04 13:49:41;;;;;;;;;;;;;;;;;;5038429;28;4662;-59
2023/05/04 13:52:06;;;;;;;;;;;;;;;;;;5049365;28;4688;-58
2023/05/04 13:54:32;;;;;;;;;;;;;;;;;;5058405;28;2021;-58
2023/05/04 13:56:57;;;;;;;;;;;;;;;;;;5058935;28;4611;-55
2023/05/04 13:59:23;;;;;;;;;;;;;;;;;;5056383;28;5110;-57
2023/05/04 14:01:48;;;;;;;;;;;;;;;;;;5046510;28;4809;-58
2023/05/04 14:04:13;;;;;;;;;;;;;;;;;;5060023;28;4498;-56
2023/05/04 14:06:38;;;;;;;;;;;;;;;;;;5059820;28;1814;-57
2023/05/04 14:09:04;;;;;;;;;;;;;;;;;;5071576;28;6386;-55
2023/05/04 14:11:29;;;;;;;;;;;;;;;;;;5054838;28;4443;-56
2023/05/04 14:13:55;;;;;;;;;;;;;;;;;;5052689;28;4577;-55
2023/05/04 14:16:20;;;;;;;;;;;;;;;;;;5049124;28;5005;-56
2023/05/04 14:18:46;;;;;;;;;;;;;;;;;;5046340;28;1059;-55
2023/05/04 14:21:11;;;;;;;;;;;;;;;;;;5054565;28;5096;-55
2023/05/04 14:23:36;;;;;;;;;;;;;;;;;;5057749;28;4699;-54
2023/05/04 14:26:02;;;;;;;;;;;;;;;;;;5047874;28;5049;-55
2023/05/04 14:28:28;;;;;;;;;;;;;;;;;;5056419;28;4755;-55
2023/05/04 14:30:53;;;;;;;;;;;;;;;;;;5045788;28;4529;-56
2023/05/04 14:33:18;;;;;;;;;;;;;;;;;;5061137;28;1969;-57
2023/05/04 14:35:44;;;;;;;;;;;;;;;;;;5057835;28;4418;-57
2023/05/04 14:38:10;;;;;;;;;;;;;;;;;;5041078;28;5024;-55
2023/05/04 14:40:35;;;;;;;;;;;;;;;;;;5051310;28;4684;-56
2023/05/04 14:43:01;;;;;;;;;;;;;;;;;;5051824;28;5074;-50
2023/05/04 14:45:26;;;;;;;;;;;;;;;;;;5053256;28;1768;-57
2023/05/04 14:47:52;;;;;;;;;;;;;;;;;;5060532;28;5022;-56
2023/05/04 14:50:17;;;;;;;;;;;;;;;;;;5063227;28;4643;-56
2023/05/04 14:52:43;;;;;;;;;;;;;;;;;;5060366;28;5189;-56
2023/05/04 14:55:08;;;;;;;;;;;;;;;;;;5054775;28;4554;-54
2023/05/04 14:57:33;;;;;;;;;;;;;;;;;;5051887;28;1615;-57
2023/05/04 14:59:59;;;;;;;;;;;;;;;;;;5050281;28;5196;-57
2023/05/04 15:02:24;;;;;;;;;;;;;;;;;;5046377;28;4945;-57
2023/05/04 15:04:49;;;;;;;;;;;;;;;;;;5054425;28;4593;-56
2023/05/04 15:07:17;;;;;;;;;;;;;;;;;;5061776;28;4496;-57
2023/05/04 15:09:42;;;;;;;;;;;;;;;;;;5048407;28;6296;-56
2023/05/04 15:12:07;;;;;;;;;;;;;;;;;;5052620;28;4697;-58
2023/05/04 15:14:34;;;;;;;;;;;;;;;;;;5057842;28;4453;-58
2023/05/04 15:17:00;;;;;;;;;;;;;;;;;;5052916;28;4589;-58
2023/05/04 15:19:25;;;;;;;;;;;;;;;;;;5053721;28;4513;-62
2023/05/04 15:21:52;;;;;;;;;;;;;;;;;;5051577;28;5042;-62
2023/05/04 15:24:18;;;;;;;;;;;;;;;;;;5051779;28;1762;-62
2023/05/04 15:26:44;;;;;;;;;;;;;;;;;;5053338;28;4841;-64
2023/05/04 15:29:09;;;;;;;;;;;;;;;;;;5060627;28;4504;-62
2023/05/04 15:31:35;;;;;;;;;;;;;;;;;;5050921;28;4850;-57
2023/05/04 15:34:00;;;;;;;;;;;;;;;;;;5050822;28;4635;-58
2023/05/04 15:36:26;;;;;;;;;;;;;;;;;;5051256;28;1110;-57
2023/05/04 15:38:51;;;;;;;;;;;;;;;;;;5049381;28;4618;-57
2023/05/04 15:41:16;;;;;;;;;;;;;;;;;;5047639;28;4481;-58
2023/05/04 15:43:42;;;;;;;;;;;;;;;;;;5042387;28;4999;-58
2023/05/04 15:46:07;;;;;;;;;;;;;;;;;;5055467;28;4599;-56
2023/05/04 15:48:32;;;;;;;;;;;;;;;;;;5054792;28;1025;-57
2023/05/04 15:50:58;;;;;;;;;;;;;;;;;;5055129;28;5030;-58
2023/05/04 15:53:23;;;;;;;;;;;;;;;;;;5058614;28;5076;-58
2023/05/04 15:55:49;;;;;;;;;;;;;;;;;;5061396;28;4692;-58
2023/05/04 15:58:14;;;;;;;;;;;;;;;;;;5055724;28;5478;-58
2023/05/04 16:00:39;;;;;;;;;;;;;;;;;;5049416;28;1384;-56
2023/05/04 16:03:04;;;;;;;;;;;;;;;;;;5052491;28;5014;-57
2023/05/04 16:05:30;;;;;;;;;;;;;;;;;;5058986;28;5057;-58
2023/05/04 16:07:55;;;;;;;;;;;;;;;;;;5046819;28;4505;-59
2023/05/04 16:10:21;;;;;;;;;;;;;;;;;;5067338;28;6580;-59
2023/05/04 16:12:46;;;;;;;;;;;;;;;;;;5049073;28;2965;-58
2023/05/04 16:15:11;;;;;;;;;;;;;;;;;;5046291;28;4620;-57
2023/05/04 16:17:37;;;;;;;;;;;;;;;;;;5049789;28;4460;-57
2023/05/04 16:20:02;;;;;;;;;;;;;;;;;;5051190;28;4648;-58
2023/05/04 16:22:27;;;;;;;;;;;;;;;;;;5045614;28;5074;-57
2023/05/04 16:24:53;;;;;;;;;;;;;;;;;;5049125;28;4596;-58
2023/05/04 16:27:18;;;;;;;;;;;;;;;;;;5057394;28;1702;-58
2023/05/04 16:29:43;;;;;;;;;;;;;;;;;;5052031;28;4623;-58
2023/05/04 16:32:09;;;;;;;;;;;;;;;;;;5046410;28;4831;-58
2023/05/04 16:34:34;;;;;;;;;;;;;;;;;;5056665;28;4832;-58
2023/05/04 16:37:00;;;;;;;;;;;;;;;;;;5040548;28;4512;-57
2023/05/04 16:39:25;;;;;;;;;;;;;;;;;;5046949;28;1341;-58
2023/05/04 16:41:51;;;;;;;;;;;;;;;;;;5047827;28;5071;-56
2023/05/04 16:44:16;;;;;;;;;;;;;;;;;;5048553;28;4478;-58
2023/05/04 16:46:41;;;;;;;;;;;;;;;;;;5055268;28;4686;-58
2023/05/04 16:49:07;;;;;;;;;;;;;;;;;;5050072;28;4652;-58
2023/05/04 16:51:32;;;;;;;;;;;;;;;;;;5048212;28;2806;-57
2023/05/04 16:53:57;;;;;;;;;;;;;;;;;;5055035;28;5144;-58